Theo T — C6SY5 — position and weather

sailwx.info

Track history (hours):
 
Tides and Currents Weather Stations Pressure Air Temp Water Temp Dewpoint Dewpoint Depression Visibility Wind Speed Wind Dir Waves Ship Positions

Theo T

Last reported at 2018-Jun-21 17:55 UTC. Time now 2018-Jun-24 14:17 UTC.
Position N 36°27' W 000°47'.

Length 227 m; draft 11.8 m.

Type: Tanker. MMSI: 311538000.

Date/timePositionNaut miles runAvg speedWind from/ knotsBaromVisibWave heightAir tempDewpointWater temp
2018-Jun-21 17:55N 36°27' W 000°47'613.2
2018-Jun-21 17:30N 36°28' W 000°40'613.1
2018-Jun-21 17:00N 36°29' W 000°33'713.2
2018-Jun-21 16:30N 36°30' W 000°24'713.1
2018-Jun-21 15:59N 36°31' W 000°16'613.1
2018-Jun-21 15:30N 36°32' W 000°08'713.2
2018-Jun-21 15:00N 36°33' W 000°00'713.2
2018-Jun-21 14:30N 36°34' E 000°08'713.4
2018-Jun-21 13:58N 36°36' E 000°17'613.1
2018-Jun-21 13:30N 36°37' E 000°24'612.8
2018-Jun-21 13:00N 36°38' E 000°32'712.4
2018-Jun-21 12:28N 36°39' E 000°40'912.5
2018-Jun-21 11:46N 36°40' E 000°51'312.5
2018-Jun-21 11:29N 36°41' E 000°55'7413.2
2018-Jun-21 05:53N 36°53' E 002°26'514.0
2018-Jun-21 05:30N 36°54' E 002°33'1413.7
2018-Jun-21 04:30N 36°57' E 002°49'713.6
2018-Jun-21 03:58N 36°58' E 002°59'613.7
2018-Jun-21 03:30N 36°59' E 003°06'713.7
2018-Jun-21 03:00N 36°60' E 003°15'713.6
2018-Jun-21 02:30N 37°01' E 003°23'713.5
2018-Jun-21 02:00N 37°02' E 003°32'713.3
2018-Jun-21 01:30N 37°04' E 003°40'713.3
2018-Jun-21 01:00N 37°05' E 003°48'713.3
2018-Jun-21 00:30N 37°05' E 003°56'713.1
2018-Jun-21 00:00N 37°06' E 004°04'713.0
2018-Jun-20 23:30N 37°07' E 004°12'713.1
2018-Jun-20 23:00N 37°07' E 004°21'613.0
2018-Jun-20 22:30N 37°07' E 004°29'7213.2
2018-Jun-20 17:03N 37°12' E 005°59'  
2018-Jun-17 03:31N 37°08' E 005°03'112.4
2018-Jun-17 03:26N 37°08' E 005°02'512.8
2018-Jun-17 03:00N 37°08' E 004°55'2112.3
2018-Jun-17 01:20N 37°07' E 004°29'411.9
2018-Jun-17 00:59N 37°07' E 004°24'611.9
2018-Jun-17 00:30N 37°07' E 004°17'1212.0
2018-Jun-16 23:32N 37°06' E 004°02'112.3
2018-Jun-16 23:29N 37°06' E 004°01'2612.2
2018-Jun-16 21:20N 37°02' E 003°29'411.5
2018-Jun-16 21:00N 37°01' E 003°24'510.9
2018-Jun-16 20:30N 37°00' E 003°17'510.8
2018-Jun-16 20:00N 36°59' E 003°11'510.8
2018-Jun-16 19:30N 36°58' E 003°04'510.8
2018-Jun-16 19:00N 36°57' E 002°57'510.8
2018-Jun-16 18:30N 36°57' E 002°51'510.9
2018-Jun-16 18:00N 36°56' E 002°44'610.7
2018-Jun-16 17:29N 36°55' E 002°37'510.4
2018-Jun-16 17:00N 36°54' E 002°31'510.6
2018-Jun-16 16:30N 36°53' E 002°25'511.0
2018-Jun-16 16:00N 36°52' E 002°18'611.1
2018-Jun-16 15:30N 36°51' E 002°11'611.7
2018-Jun-16 15:00N 36°50' E 002°04'612.3
2018-Jun-16 14:30N 36°49' E 001°56'612.5
2018-Jun-16 14:00N 36°48' E 001°49'612.5
2018-Jun-16 13:30N 36°47' E 001°41'612.5
2018-Jun-16 13:00N 36°46' E 001°33'612.4
2018-Jun-16 12:30N 36°45' E 001°25'612.4
2018-Jun-16 12:00N 36°44' E 001°18'612.3
2018-Jun-16 11:30N 36°43' E 001°10'712.2
2018-Jun-16 10:58N 36°42' E 001°02'612.2
2018-Jun-16 10:28N 36°41' E 000°55'612.1
2018-Jun-16 10:00N 36°40' E 000°48'612.0
2018-Jun-16 09:30N 36°39' E 000°40'612.1
2018-Jun-16 09:00N 36°38' E 000°33'612.3
2018-Jun-16 08:30N 36°37' E 000°26'612.2
2018-Jun-16 08:00N 36°36' E 000°18'611.8
2018-Jun-16 07:30N 36°35' E 000°11'611.9
2018-Jun-16 07:00N 36°34' E 000°04'611.9
2018-Jun-16 06:30N 36°33' W 000°04'612.1
2018-Jun-16 06:00N 36°32' W 000°11'611.7
2018-Jun-16 05:30N 36°31' W 000°18'611.6
2018-Jun-16 05:00N 36°30' W 000°25'611.9
2018-Jun-16 04:30N 36°29' W 000°33'612.1
2018-Jun-16 04:00N 36°28' W 000°40'612.2
2018-Jun-16 03:30N 36°27' W 000°48'612.0
2018-Jun-16 03:00N 36°25' W 000°55'612.0
2018-Jun-16 02:30N 36°25' W 001°02'712.3
2018-Jun-16 01:58N 36°24' W 001°10'511.8
2018-Jun-16 01:30N 36°23' W 001°17'612.1
2018-Jun-16 01:00N 36°22' W 001°25'812.7
2018-Jun-16 00:24N 36°20' W 001°34'613.0
2018-Jun-15 23:55N 36°19' W 001°42'1013.1
2018-Jun-15 23:11N 36°18' W 001°53'413.3
2018-Jun-15 22:53N 36°17' W 001°58'513.0
2018-Jun-15 22:30N 36°17' W 002°05'15313.1
2018-Jun-15 10:49N 36°01' W 005°13'411.9
2018-Jun-15 10:30N 36°02' W 005°17'611.0
2018-Jun-15 10:00N 36°06' W 005°22'1 2.3
2018-Jun-15 09:29N 36°07' W 005°22'0 0.1
2018-Jun-15 05:32N 36°07' W 005°22'0 0.0
2018-Jun-15 05:29N 36°07' W 005°22'0 0.1
2018-Jun-15 04:59N 36°07' W 005°22'0 0.1
2018-Jun-15 04:29N 36°07' W 005°22'0 0.3
2018-Jun-15 03:53N 36°07' W 005°22'0 0.2
2018-Jun-15 03:29N 36°07' W 005°22'0 0.2
2018-Jun-15 02:41N 36°07' W 005°22'0 0.1
2018-Jun-15 02:29N 36°07' W 005°22'0 0.1
2018-Jun-15 01:53N 36°07' W 005°22'0 0.3
2018-Jun-15 01:23N 36°07' W 005°22'0 0.1
2018-Jun-15 00:59N 36°07' W 005°22'0 0.0
2018-Jun-15 00:29N 36°07' W 005°22'0 0.1
2018-Jun-14 23:59N 36°07' W 005°22'0 0.1
2018-Jun-14 23:29N 36°07' W 005°22'1 1.5
2018-Jun-14 23:00N 36°06' W 005°22'3 5.3
2018-Jun-14 22:30N 36°05' W 005°19'4 8.8
2018-Jun-14 22:00N 36°07' W 005°14'611.3
2018-Jun-14 21:29N 36°10' W 005°08'0 0.2
2018-Jun-14 20:57N 36°10' W 005°08'0 0.3
2018-Jun-14 20:30N 36°10' W 005°08'1 2.1
2018-Jun-14 19:58N 36°09' W 005°06'1 0.3
2018-Jun-14 16:49N 36°09' W 005°07'1 1.8
2018-Jun-14 16:22N 36°10' W 005°07'4 2.0
2018-Jun-14 14:14N 36°06' W 005°09'1 3.9
2018-Jun-14 13:57N 36°05' W 005°10'3 6.4
2018-Jun-14 13:30N 36°03' W 005°12'713.3
2018-Jun-14 13:00N 35°59' W 005°19'713.7
2018-Jun-14 12:30N 35°58' W 005°27'11212.4
2018-Jun-14 03:32N 36°13' W 007°44'112.7
2018-Jun-14 03:29N 36°14' W 007°44'612.8
2018-Jun-14 03:00N 36°15' W 007°52'612.6
2018-Jun-14 02:30N 36°17' W 007°59'612.5
2018-Jun-14 02:00N 36°18' W 008°07'612.6
2018-Jun-14 01:30N 36°20' W 008°14'612.6
2018-Jun-14 01:00N 36°22' W 008°22'712.6
2018-Jun-14 00:29N 36°23' W 008°30'612.8
2018-Jun-14 00:00N 36°25' W 008°37'612.6
2018-Jun-13 23:30N 36°27' W 008°45'612.7
2018-Jun-13 23:00N 36°28' W 008°52'612.8
2018-Jun-13 22:30N 36°30' W 009°00'912.9
2018-Jun-13 21:48N 36°32' W 009°11'712.6
2018-Jun-13 21:12N 36°36' W 009°19'613.3
2018-Jun-13 20:46N 36°40' W 009°24'513.1
2018-Jun-13 20:23N 36°43' W 009°29'612.8
2018-Jun-13 19:55N 36°48' W 009°33'613.3
2018-Jun-13 19:30N 36°53' W 009°35'913.4
2018-Jun-13 18:51N 37°02' W 009°38'1313.3
2018-Jun-13 17:54N 37°14' W 009°41'813.3
2018-Jun-13 17:20N 37°22' W 009°43'3613.1
2018-Jun-13 14:36N 37°57' W 009°53'213.1
2018-Jun-13 14:29N 37°58' W 009°53'613.1
2018-Jun-13 14:00N 38°04' W 009°54'713.2
2018-Jun-13 13:28N 38°11' W 009°57'613.1
2018-Jun-13 12:59N 38°17' W 009°59'613.0
2018-Jun-13 12:30N 38°23' W 010°01'713.2
2018-Jun-13 12:00N 38°30' W 010°03'713.2
2018-Jun-13 11:30N 38°36' W 010°05'713.3
2018-Jun-13 11:00N 38°43' W 010°07'713.1
2018-Jun-13 10:30N 38°49' W 010°07'612.9
2018-Jun-13 10:00N 38°56' W 010°07'713.1
2018-Jun-13 09:30N 39°02' W 010°07'713.2
2018-Jun-13 08:59N 39°09' W 010°07'613.3
2018-Jun-13 08:30N 39°15' W 010°07'  
Track history (hours):
 
Tides and Currents Weather Stations Pressure Air Temp Water Temp Dewpoint Dewpoint Depression Visibility Wind Speed Wind Dir Waves Ship Positions

Theo T

Last reported at 2018-Jun-21 17:55 UTC. Time now 2018-Jun-24 14:17 UTC.
Position N 36°27' W 000°47'.

Length 227 m; draft 11.8 m.

Type: Tanker. MMSI: 311538000.

Date/timePositionNaut miles runAvg speedWind from/ knotsBaromVisibWave heightAir tempDewpointWater temp
2018-Jun-21 17:55N 36°27' W 000°47'613.2
2018-Jun-21 17:30N 36°28' W 000°40'613.1
2018-Jun-21 17:00N 36°29' W 000°33'713.2
2018-Jun-21 16:30N 36°30' W 000°24'713.1
2018-Jun-21 15:59N 36°31' W 000°16'613.1
2018-Jun-21 15:30N 36°32' W 000°08'713.2
2018-Jun-21 15:00N 36°33' W 000°00'713.2
2018-Jun-21 14:30N 36°34' E 000°08'713.4
2018-Jun-21 13:58N 36°36' E 000°17'613.1
2018-Jun-21 13:30N 36°37' E 000°24'612.8
2018-Jun-21 13:00N 36°38' E 000°32'712.4
2018-Jun-21 12:28N 36°39' E 000°40'912.5
2018-Jun-21 11:46N 36°40' E 000°51'312.5
2018-Jun-21 11:29N 36°41' E 000°55'7413.2
2018-Jun-21 05:53N 36°53' E 002°26'514.0
2018-Jun-21 05:30N 36°54' E 002°33'1413.7
2018-Jun-21 04:30N 36°57' E 002°49'713.6
2018-Jun-21 03:58N 36°58' E 002°59'613.7
2018-Jun-21 03:30N 36°59' E 003°06'713.7
2018-Jun-21 03:00N 36°60' E 003°15'713.6
2018-Jun-21 02:30N 37°01' E 003°23'713.5
2018-Jun-21 02:00N 37°02' E 003°32'713.3
2018-Jun-21 01:30N 37°04' E 003°40'713.3
2018-Jun-21 01:00N 37°05' E 003°48'713.3
2018-Jun-21 00:30N 37°05' E 003°56'713.1
2018-Jun-21 00:00N 37°06' E 004°04'713.0
2018-Jun-20 23:30N 37°07' E 004°12'713.1
2018-Jun-20 23:00N 37°07' E 004°21'613.0
2018-Jun-20 22:30N 37°07' E 004°29'7213.2
2018-Jun-20 17:03N 37°12' E 005°59'  
2018-Jun-17 03:31N 37°08' E 005°03'112.4
2018-Jun-17 03:26N 37°08' E 005°02'512.8
2018-Jun-17 03:00N 37°08' E 004°55'2112.3
2018-Jun-17 01:20N 37°07' E 004°29'411.9
2018-Jun-17 00:59N 37°07' E 004°24'611.9
2018-Jun-17 00:30N 37°07' E 004°17'1212.0
2018-Jun-16 23:32N 37°06' E 004°02'112.3
2018-Jun-16 23:29N 37°06' E 004°01'2612.2
2018-Jun-16 21:20N 37°02' E 003°29'411.5
2018-Jun-16 21:00N 37°01' E 003°24'510.9
2018-Jun-16 20:30N 37°00' E 003°17'510.8
2018-Jun-16 20:00N 36°59' E 003°11'510.8
2018-Jun-16 19:30N 36°58' E 003°04'510.8
2018-Jun-16 19:00N 36°57' E 002°57'510.8
2018-Jun-16 18:30N 36°57' E 002°51'510.9
2018-Jun-16 18:00N 36°56' E 002°44'610.7
2018-Jun-16 17:29N 36°55' E 002°37'510.4
2018-Jun-16 17:00N 36°54' E 002°31'510.6
2018-Jun-16 16:30N 36°53' E 002°25'511.0
2018-Jun-16 16:00N 36°52' E 002°18'611.1
2018-Jun-16 15:30N 36°51' E 002°11'611.7
2018-Jun-16 15:00N 36°50' E 002°04'612.3
2018-Jun-16 14:30N 36°49' E 001°56'612.5
2018-Jun-16 14:00N 36°48' E 001°49'612.5
2018-Jun-16 13:30N 36°47' E 001°41'612.5
2018-Jun-16 13:00N 36°46' E 001°33'612.4
2018-Jun-16 12:30N 36°45' E 001°25'612.4
2018-Jun-16 12:00N 36°44' E 001°18'612.3
2018-Jun-16 11:30N 36°43' E 001°10'712.2
2018-Jun-16 10:58N 36°42' E 001°02'612.2
2018-Jun-16 10:28N 36°41' E 000°55'612.1
2018-Jun-16 10:00N 36°40' E 000°48'612.0
2018-Jun-16 09:30N 36°39' E 000°40'612.1
2018-Jun-16 09:00N 36°38' E 000°33'612.3
2018-Jun-16 08:30N 36°37' E 000°26'612.2
2018-Jun-16 08:00N 36°36' E 000°18'611.8
2018-Jun-16 07:30N 36°35' E 000°11'611.9
2018-Jun-16 07:00N 36°34' E 000°04'611.9
2018-Jun-16 06:30N 36°33' W 000°04'612.1
2018-Jun-16 06:00N 36°32' W 000°11'611.7
2018-Jun-16 05:30N 36°31' W 000°18'611.6
2018-Jun-16 05:00N 36°30' W 000°25'611.9
2018-Jun-16 04:30N 36°29' W 000°33'612.1
2018-Jun-16 04:00N 36°28' W 000°40'612.2
2018-Jun-16 03:30N 36°27' W 000°48'612.0
2018-Jun-16 03:00N 36°25' W 000°55'612.0
2018-Jun-16 02:30N 36°25' W 001°02'712.3
2018-Jun-16 01:58N 36°24' W 001°10'511.8
2018-Jun-16 01:30N 36°23' W 001°17'612.1
2018-Jun-16 01:00N 36°22' W 001°25'812.7
2018-Jun-16 00:24N 36°20' W 001°34'613.0
2018-Jun-15 23:55N 36°19' W 001°42'1013.1
2018-Jun-15 23:11N 36°18' W 001°53'413.3
2018-Jun-15 22:53N 36°17' W 001°58'513.0
2018-Jun-15 22:30N 36°17' W 002°05'15313.1
2018-Jun-15 10:49N 36°01' W 005°13'411.9
2018-Jun-15 10:30N 36°02' W 005°17'611.0
2018-Jun-15 10:00N 36°06' W 005°22'1 2.3
2018-Jun-15 09:29N 36°07' W 005°22'0 0.1
2018-Jun-15 05:32N 36°07' W 005°22'0 0.0
2018-Jun-15 05:29N 36°07' W 005°22'0 0.1
2018-Jun-15 04:59N 36°07' W 005°22'0 0.1
2018-Jun-15 04:29N 36°07' W 005°22'0 0.3
2018-Jun-15 03:53N 36°07' W 005°22'0 0.2
2018-Jun-15 03:29N 36°07' W 005°22'0 0.2
2018-Jun-15 02:41N 36°07' W 005°22'0 0.1
2018-Jun-15 02:29N 36°07' W 005°22'0 0.1
2018-Jun-15 01:53N 36°07' W 005°22'0 0.3
2018-Jun-15 01:23N 36°07' W 005°22'0 0.1
2018-Jun-15 00:59N 36°07' W 005°22'0 0.0
2018-Jun-15 00:29N 36°07' W 005°22'0 0.1
2018-Jun-14 23:59N 36°07' W 005°22'0 0.1
2018-Jun-14 23:29N 36°07' W 005°22'1 1.5
2018-Jun-14 23:00N 36°06' W 005°22'3 5.3
2018-Jun-14 22:30N 36°05' W 005°19'4 8.8
2018-Jun-14 22:00N 36°07' W 005°14'611.3
2018-Jun-14 21:29N 36°10' W 005°08'0 0.2
2018-Jun-14 20:57N 36°10' W 005°08'0 0.3
2018-Jun-14 20:30N 36°10' W 005°08'1 2.1
2018-Jun-14 19:58N 36°09' W 005°06'1 0.3
2018-Jun-14 16:49N 36°09' W 005°07'1 1.8
2018-Jun-14 16:22N 36°10' W 005°07'4 2.0
2018-Jun-14 14:14N 36°06' W 005°09'1 3.9
2018-Jun-14 13:57N 36°05' W 005°10'3 6.4
2018-Jun-14 13:30N 36°03' W 005°12'713.3
2018-Jun-14 13:00N 35°59' W 005°19'713.7
2018-Jun-14 12:30N 35°58' W 005°27'11212.4
2018-Jun-14 03:32N 36°13' W 007°44'112.7
2018-Jun-14 03:29N 36°14' W 007°44'612.8
2018-Jun-14 03:00N 36°15' W 007°52'612.6
2018-Jun-14 02:30N 36°17' W 007°59'612.5
2018-Jun-14 02:00N 36°18' W 008°07'612.6
2018-Jun-14 01:30N 36°20' W 008°14'612.6
2018-Jun-14 01:00N 36°22' W 008°22'712.6
2018-Jun-14 00:29N 36°23' W 008°30'612.8
2018-Jun-14 00:00N 36°25' W 008°37'612.6
2018-Jun-13 23:30N 36°27' W 008°45'612.7
2018-Jun-13 23:00N 36°28' W 008°52'612.8
2018-Jun-13 22:30N 36°30' W 009°00'912.9
2018-Jun-13 21:48N 36°32' W 009°11'712.6
2018-Jun-13 21:12N 36°36' W 009°19'613.3
2018-Jun-13 20:46N 36°40' W 009°24'513.1
2018-Jun-13 20:23N 36°43' W 009°29'612.8
2018-Jun-13 19:55N 36°48' W 009°33'613.3
2018-Jun-13 19:30N 36°53' W 009°35'913.4
2018-Jun-13 18:51N 37°02' W 009°38'1313.3
2018-Jun-13 17:54N 37°14' W 009°41'813.3
2018-Jun-13 17:20N 37°22' W 009°43'3613.1
2018-Jun-13 14:36N 37°57' W 009°53'213.1
2018-Jun-13 14:29N 37°58' W 009°53'613.1
2018-Jun-13 14:00N 38°04' W 009°54'713.2
2018-Jun-13 13:28N 38°11' W 009°57'613.1
2018-Jun-13 12:59N 38°17' W 009°59'613.0
2018-Jun-13 12:30N 38°23' W 010°01'713.2
2018-Jun-13 12:00N 38°30' W 010°03'713.2
2018-Jun-13 11:30N 38°36' W 010°05'713.3
2018-Jun-13 11:00N 38°43' W 010°07'713.1
2018-Jun-13 10:30N 38°49' W 010°07'612.9
2018-Jun-13 10:00N 38°56' W 010°07'713.1
2018-Jun-13 09:30N 39°02' W 010°07'713.2
2018-Jun-13 08:59N 39°09' W 010°07'613.3
2018-Jun-13 08:30N 39°15' W 010°07'  

Dump ship's entire track history